Time;durP1;ratioP1;P1;durP2;ratioP2;P2;SDS_P1;SDS_P2;PMS_P1;PMS_P2;Temp;Humidity;BMP_temperature;BMP_pressure;BME280_temperature;BME280_humidity;BME280_pressure;Samples;Min_cycle;Max_cycle;Signal;HPM_P1;HPM_P2
2021/10/18 00:01:05;;;;;;;9.85;4.03;;;;;;;;;;5012984;28;20378;-50
2021/10/18 00:03:31;;;;;;;8.65;4.45;;;;;;;;;;5012611;28;20060;-51
2021/10/18 00:05:57;;;;;;;9.68;4.22;;;;;;;;;;5012791;28;20060;-51
2021/10/18 00:08:22;;;;;;;6.07;3.83;;;;;;;;;;5010518;28;20033;-50
2021/10/18 00:10:49;;;;;;;8.70;4.53;;;;;;;;;;5012915;28;20033;-51
2021/10/18 00:13:15;;;;;;;7.22;4.18;;;;;;;;;;5012484;28;20105;-51
2021/10/18 00:15:41;;;;;;;6.93;4.13;;;;;;;;;;5010826;28;20038;-51
2021/10/18 00:18:07;;;;;;;9.90;5.13;;;;;;;;;;5012261;28;20041;-56
2021/10/18 00:20:33;;;;;;;9.02;4.05;;;;;;;;;;5009735;28;20108;-50
2021/10/18 00:22:59;;;;;;;9.02;4.22;;;;;;;;;;5012499;28;20057;-52
2021/10/18 00:25:25;;;;;;;6.47;4.00;;;;;;;;;;5012528;28;20084;-53
2021/10/18 00:27:51;;;;;;;9.65;3.95;;;;;;;;;;5012611;28;20040;-55
2021/10/18 00:30:17;;;;;;;6.97;4.10;;;;;;;;;;5012771;28;20034;-52
2021/10/18 00:32:43;;;;;;;7.70;3.90;;;;;;;;;;5012517;28;20129;-54
2021/10/18 00:35:10;;;;;;;10.35;4.80;;;;;;;;;;5012572;28;20549;-55
2021/10/18 00:37:36;;;;;;;5.93;3.58;;;;;;;;;;5012315;28;20033;-50
2021/10/18 00:40:03;;;;;;;6.72;3.70;;;;;;;;;;5012487;28;20076;-50
2021/10/18 00:42:29;;;;;;;5.45;3.95;;;;;;;;;;5012719;28;20021;-53
2021/10/18 00:44:55;;;;;;;6.38;4.03;;;;;;;;;;5012404;28;20033;-52
2021/10/18 00:47:22;;;;;;;7.95;4.20;;;;;;;;;;5012469;28;20037;-50
2021/10/18 00:49:49;;;;;;;5.55;3.88;;;;;;;;;;5011332;28;20026;-51
2021/10/18 00:52:17;;;;;;;9.18;4.57;;;;;;;;;;5011533;28;20478;-51
2021/10/18 00:54:43;;;;;;;6.80;3.78;;;;;;;;;;5009047;28;20026;-53
2021/10/18 00:57:09;;;;;;;6.10;3.65;;;;;;;;;;5009447;28;20591;-56
2021/10/18 00:59:36;;;;;;;6.22;3.53;;;;;;;;;;5012034;28;20041;-51
2021/10/18 01:02:02;;;;;;;7.10;3.33;;;;;;;;;;5012372;28;20030;-53
2021/10/18 01:04:28;;;;;;;6.68;3.53;;;;;;;;;;5012427;28;20026;-50
2021/10/18 01:06:56;;;;;;;6.05;3.40;;;;;;;;;;5011852;28;20038;-53
2021/10/18 01:09:22;;;;;;;5.85;3.92;;;;;;;;;;5012282;28;20030;-52
2021/10/18 01:11:48;;;;;;;11.07;4.03;;;;;;;;;;5012129;28;20783;-51
2021/10/18 01:14:14;;;;;;;6.72;3.33;;;;;;;;;;5008240;28;20026;-52
2021/10/18 01:16:40;;;;;;;6.95;3.78;;;;;;;;;;5011960;28;20121;-51
2021/10/18 01:19:17;;;;;;;5.93;3.75;;;;;;;;;;5011872;28;20038;-50
2021/10/18 01:21:43;;;;;;;5.63;3.60;;;;;;;;;;5006040;28;20092;-51
2021/10/18 01:24:10;;;;;;;8.75;3.90;;;;;;;;;;5011667;28;20034;-51
2021/10/18 01:26:36;;;;;;;6.43;3.38;;;;;;;;;;5006073;28;20044;-50
2021/10/18 01:29:02;;;;;;;7.90;3.67;;;;;;;;;;5011910;28;20541;-51
2021/10/18 01:31:28;;;;;;;5.75;3.65;;;;;;;;;;5011446;28;20050;-51
2021/10/18 01:33:54;;;;;;;5.57;3.45;;;;;;;;;;5011778;28;20105;-57
2021/10/18 01:36:21;;;;;;;6.28;3.40;;;;;;;;;;5009899;28;20049;-57
2021/10/18 01:38:47;;;;;;;7.03;3.65;;;;;;;;;;5011601;28;20026;-57
2021/10/18 01:41:13;;;;;;;5.20;3.28;;;;;;;;;;5011746;28;20388;-52
2021/10/18 01:43:39;;;;;;;6.22;3.80;;;;;;;;;;5012044;28;20022;-50
2021/10/18 01:46:05;;;;;;;5.60;3.22;;;;;;;;;;5011197;28;20433;-55
2021/10/18 01:48:31;;;;;;;6.82;4.03;;;;;;;;;;5011294;28;20104;-51
2021/10/18 01:50:58;;;;;;;5.20;3.60;;;;;;;;;;5011625;28;20088;-51
2021/10/18 01:53:24;;;;;;;4.85;3.58;;;;;;;;;;5011131;28;20108;-50
2021/10/18 01:55:50;;;;;;;10.23;3.90;;;;;;;;;;5011394;28;20113;-51
2021/10/18 01:58:16;;;;;;;9.05;3.55;;;;;;;;;;5011175;28;20083;-51
2021/10/18 02:00:42;;;;;;;4.85;3.33;;;;;;;;;;5012947;28;20093;-53
2021/10/18 02:03:09;;;;;;;7.28;3.92;;;;;;;;;;5015202;28;20030;-51
2021/10/18 02:05:35;;;;;;;7.00;3.65;;;;;;;;;;5014883;28;20030;-53
2021/10/18 02:08:01;;;;;;;5.22;2.97;;;;;;;;;;5010770;28;20045;-53
2021/10/18 02:10:27;;;;;;;4.95;3.00;;;;;;;;;;5015325;28;20049;-55
2021/10/18 02:12:53;;;;;;;6.38;3.53;;;;;;;;;;5014357;28;20091;-53
2021/10/18 02:15:19;;;;;;;7.50;3.63;;;;;;;;;;5014549;28;20041;-51
2021/10/18 02:17:45;;;;;;;5.05;3.22;;;;;;;;;;5015146;28;20030;-50
2021/10/18 02:20:12;;;;;;;4.53;2.60;;;;;;;;;;5015291;28;20030;-53
2021/10/18 02:22:38;;;;;;;5.85;3.10;;;;;;;;;;5011861;28;20026;-50
2021/10/18 02:25:05;;;;;;;3.67;2.58;;;;;;;;;;5011162;28;20030;-50
2021/10/18 02:27:32;;;;;;;4.30;2.83;;;;;;;;;;5014831;28;20026;-52
2021/10/18 02:29:58;;;;;;;5.28;3.33;;;;;;;;;;5014252;28;20030;-53
2021/10/18 02:32:24;;;;;;;5.03;3.30;;;;;;;;;;5014578;28;20049;-52
2021/10/18 02:34:50;;;;;;;4.55;3.17;;;;;;;;;;5014705;28;20022;-51
2021/10/18 02:37:16;;;;;;;5.35;3.30;;;;;;;;;;5014286;28;20467;-53
2021/10/18 02:39:42;;;;;;;4.50;2.83;;;;;;;;;;5014304;28;20128;-51
2021/10/18 02:42:08;;;;;;;4.32;2.92;;;;;;;;;;5014415;28;20028;-52
2021/10/18 02:44:34;;;;;;;4.78;3.00;;;;;;;;;;5014663;28;20041;-56
2021/10/18 02:47:00;;;;;;;4.90;3.17;;;;;;;;;;5014124;28;20040;-54
2021/10/18 02:49:26;;;;;;;9.45;3.10;;;;;;;;;;5013973;28;20382;-55
2021/10/18 02:51:52;;;;;;;4.40;2.70;;;;;;;;;;5013996;28;20048;-51
2021/10/18 02:54:18;;;;;;;6.45;2.78;;;;;;;;;;5013843;28;20018;-51
2021/10/18 02:56:44;;;;;;;4.13;2.50;;;;;;;;;;5014030;28;20018;-55
2021/10/18 02:59:10;;;;;;;3.53;2.67;;;;;;;;;;5013797;28;20033;-52
2021/10/18 03:01:36;;;;;;;8.38;2.72;;;;;;;;;;5012161;28;20033;-50
2021/10/18 03:04:02;;;;;;;6.78;3.55;;;;;;;;;;5014464;28;20079;-50
2021/10/18 03:06:28;;;;;;;6.97;2.80;;;;;;;;;;5014268;28;20022;-51
2021/10/18 03:08:54;;;;;;;4.03;2.50;;;;;;;;;;5009481;28;20025;-50
2021/10/18 03:11:20;;;;;;;5.68;2.80;;;;;;;;;;5013194;28;20030;-51
2021/10/18 03:13:46;;;;;;;3.90;2.33;;;;;;;;;;5013529;28;20453;-51
2021/10/18 03:16:12;;;;;;;3.95;2.95;;;;;;;;;;5011686;28;20037;-54
2021/10/18 03:18:38;;;;;;;4.10;2.80;;;;;;;;;;5013709;28;20125;-51
2021/10/18 03:21:04;;;;;;;4.30;2.88;;;;;;;;;;5012704;28;20482;-52
2021/10/18 03:23:31;;;;;;;4.28;2.67;;;;;;;;;;5013129;28;20022;-55
2021/10/18 03:25:57;;;;;;;6.80;2.97;;;;;;;;;;5013417;28;20137;-52
2021/10/18 03:28:23;;;;;;;5.80;3.03;;;;;;;;;;5013804;28;20061;-53
2021/10/18 03:30:49;;;;;;;4.28;2.60;;;;;;;;;;5014324;28;20125;-55
2021/10/18 03:33:16;;;;;;;3.55;2.40;;;;;;;;;;5013272;28;20124;-50
2021/10/18 03:35:42;;;;;;;7.20;2.47;;;;;;;;;;5013553;28;20026;-50
2021/10/18 03:38:08;;;;;;;6.80;2.30;;;;;;;;;;5013533;28;20029;-51
2021/10/18 03:40:34;;;;;;;2.92;2.38;;;;;;;;;;5013745;28;20026;-51
2021/10/18 03:43:00;;;;;;;4.43;2.38;;;;;;;;;;5013279;28;20030;-50
2021/10/18 03:45:27;;;;;;;4.75;2.60;;;;;;;;;;5013170;28;20402;-52
2021/10/18 03:47:53;;;;;;;3.08;2.47;;;;;;;;;;5013428;28;20113;-50
2021/10/18 03:50:19;;;;;;;3.22;2.20;;;;;;;;;;5013333;28;20022;-52
2021/10/18 03:52:45;;;;;;;4.35;2.20;;;;;;;;;;5012983;28;20108;-52
2021/10/18 03:55:11;;;;;;;4.85;2.40;;;;;;;;;;5012479;28;20129;-53
2021/10/18 03:57:37;;;;;;;4.90;3.03;;;;;;;;;;5012437;28;20030;-51
2021/10/18 04:00:04;;;;;;;3.97;2.47;;;;;;;;;;5013599;28;20107;-52
2021/10/18 04:02:30;;;;;;;7.63;2.08;;;;;;;;;;5011581;28;20033;-51
2021/10/18 04:04:56;;;;;;;3.83;2.53;;;;;;;;;;5013232;28;20022;-50
2021/10/18 04:07:22;;;;;;;3.58;2.42;;;;;;;;;;5013020;28;20025;-51
2021/10/18 04:09:48;;;;;;;3.35;2.40;;;;;;;;;;5012322;28;20033;-50
2021/10/18 04:12:14;;;;;;;4.72;2.42;;;;;;;;;;5012202;28;20045;-51
2021/10/18 04:14:40;;;;;;;3.05;2.30;;;;;;;;;;5012805;28;20475;-50
2021/10/18 04:17:06;;;;;;;4.18;2.08;;;;;;;;;;5013154;28;20043;-51
2021/10/18 04:19:33;;;;;;;3.97;2.22;;;;;;;;;;5012820;28;20470;-50
2021/10/18 04:21:58;;;;;;;3.85;2.20;;;;;;;;;;5012622;28;20033;-53
2021/10/18 04:24:24;;;;;;;3.13;2.50;;;;;;;;;;5012140;28;20029;-57
2021/10/18 04:26:50;;;;;;;5.85;2.20;;;;;;;;;;5011658;28;20022;-55
2021/10/18 04:29:17;;;;;;;2.53;2.03;;;;;;;;;;5010896;28;20042;-52
2021/10/18 04:31:43;;;;;;;3.63;2.20;;;;;;;;;;5013071;28;20099;-56
2021/10/18 04:34:09;;;;;;;2.92;2.17;;;;;;;;;;5012394;28;20030;-54
2021/10/18 04:36:35;;;;;;;4.78;2.00;;;;;;;;;;5011491;28;20087;-52
2021/10/18 04:39:01;;;;;;;2.95;2.05;;;;;;;;;;5011887;28;20121;-52
2021/10/18 04:41:27;;;;;;;3.45;2.10;;;;;;;;;;5012418;28;20033;-51
2021/10/18 04:43:53;;;;;;;3.05;2.05;;;;;;;;;;5012198;28;20026;-50
2021/10/18 04:46:19;;;;;;;3.85;2.30;;;;;;;;;;5012146;28;20038;-52
2021/10/18 04:48:45;;;;;;;2.88;1.90;;;;;;;;;;5012014;28;20474;-51
2021/10/18 04:51:11;;;;;;;4.55;2.05;;;;;;;;;;5012289;28;20104;-51
2021/10/18 04:53:37;;;;;;;3.70;2.03;;;;;;;;;;5005920;28;20030;-51
2021/10/18 04:56:03;;;;;;;3.00;1.85;;;;;;;;;;5009269;28;20112;-50
2021/10/18 04:58:29;;;;;;;5.72;2.38;;;;;;;;;;5011955;28;20126;-56
2021/10/18 05:00:56;;;;;;;3.03;2.10;;;;;;;;;;5012224;28;20034;-55
2021/10/18 05:03:23;;;;;;;5.47;2.17;;;;;;;;;;5012438;28;20454;-55
2021/10/18 05:05:49;;;;;;;3.72;1.60;;;;;;;;;;5012308;28;20053;-51
2021/10/18 05:08:15;;;;;;;3.58;1.95;;;;;;;;;;5012205;28;20453;-51
2021/10/18 05:10:42;;;;;;;5.63;1.70;;;;;;;;;;5011571;28;20112;-53
2021/10/18 05:13:08;;;;;;;3.25;1.70;;;;;;;;;;5011688;28;20060;-51
2021/10/18 05:15:35;;;;;;;2.95;1.90;;;;;;;;;;5011998;28;20036;-51
2021/10/18 05:18:01;;;;;;;6.05;2.03;;;;;;;;;;5011554;28;20287;-52
2021/10/18 05:20:28;;;;;;;3.80;2.10;;;;;;;;;;5011917;28;20025;-53
2021/10/18 05:22:54;;;;;;;3.28;1.90;;;;;;;;;;5011494;28;20405;-52
2021/10/18 05:25:20;;;;;;;6.30;1.70;;;;;;;;;;5011361;28;20041;-50
2021/10/18 05:27:46;;;;;;;2.78;1.90;;;;;;;;;;5011397;28;20125;-50
2021/10/18 05:30:13;;;;;;;3.65;2.10;;;;;;;;;;5011062;28;20421;-50
2021/10/18 05:32:40;;;;;;;4.43;1.92;;;;;;;;;;5011180;28;20050;-52
2021/10/18 05:35:06;;;;;;;3.08;1.90;;;;;;;;;;5012342;28;20057;-54
2021/10/18 05:37:32;;;;;;;3.47;1.92;;;;;;;;;;5015506;28;20026;-52
2021/10/18 05:39:58;;;;;;;2.92;1.63;;;;;;;;;;5015808;28;20033;-52
2021/10/18 05:42:24;;;;;;;2.40;1.70;;;;;;;;;;5014957;28;20375;-52
2021/10/18 05:44:50;;;;;;;2.65;1.63;;;;;;;;;;5012067;28;20038;-55
2021/10/18 05:47:16;;;;;;;3.28;1.90;;;;;;;;;;5014257;28;20057;-56
2021/10/18 05:49:43;;;;;;;1.85;1.58;;;;;;;;;;5015474;28;20414;-51
2021/10/18 05:52:09;;;;;;;2.70;1.88;;;;;;;;;;5014669;28;20485;-55
2021/10/18 05:54:35;;;;;;;2.65;1.70;;;;;;;;;;5015290;28;20029;-50
2021/10/18 05:57:01;;;;;;;2.83;1.52;;;;;;;;;;5014474;28;20037;-50
2021/10/18 05:59:27;;;;;;;3.08;1.92;;;;;;;;;;5015139;28;20022;-51
2021/10/18 06:01:53;;;;;;;2.42;1.90;;;;;;;;;;5014712;28;20088;-50
2021/10/18 06:04:19;;;;;;;3.78;1.70;;;;;;;;;;5014833;28;20037;-50
2021/10/18 06:06:45;;;;;;;2.83;1.95;;;;;;;;;;5014904;28;20520;-54
2021/10/18 06:09:13;;;;;;;2.38;1.67;;;;;;;;;;5012121;28;20136;-53
2021/10/18 06:11:39;;;;;;;2.45;1.50;;;;;;;;;;5014878;28;20056;-55
2021/10/18 06:14:05;;;;;;;2.92;1.90;;;;;;;;;;5007996;28;20018;-54
2021/10/18 06:16:31;;;;;;;3.00;1.77;;;;;;;;;;5011017;28;20061;-51
2021/10/18 06:18:57;;;;;;;2.63;1.83;;;;;;;;;;5014443;28;20117;-53
2021/10/18 06:21:26;;;;;;;3.40;1.77;;;;;;;;;;5013612;28;20129;-56
2021/10/18 06:23:52;;;;;;;3.25;1.88;;;;;;;;;;5015813;28;20033;-50
2021/10/18 06:26:18;;;;;;;2.80;1.70;;;;;;;;;;5014089;28;20018;-53
2021/10/18 06:28:44;;;;;;;2.28;1.75;;;;;;;;;;5014669;28;20052;-51
2021/10/18 06:31:10;;;;;;;2.75;1.90;;;;;;;;;;5014277;28;20034;-51
2021/10/18 06:33:36;;;;;;;4.75;2.22;;;;;;;;;;5014104;28;20056;-54
2021/10/18 06:36:02;;;;;;;3.00;2.22;;;;;;;;;;5014514;28;20018;-50
2021/10/18 06:38:29;;;;;;;5.65;2.55;;;;;;;;;;5014149;28;20104;-51
2021/10/18 06:40:55;;;;;;;3.40;2.20;;;;;;;;;;5013242;28;20053;-55
2021/10/18 06:43:21;;;;;;;7.60;2.40;;;;;;;;;;5011788;28;20053;-54
2021/10/18 06:45:47;;;;;;;5.47;3.03;;;;;;;;;;5012032;28;20022;-51
2021/10/18 06:48:15;;;;;;;5.40;2.10;;;;;;;;;;5011777;28;20363;-54
2021/10/18 06:50:42;;;;;;;6.22;2.03;;;;;;;;;;5000596;28;20554;-51
2021/10/18 06:53:17;;;;;;;5.40;2.20;;;;;;;;;;5010718;28;23662;-53
2021/10/18 06:55:43;;;;;;;3.78;2.20;;;;;;;;;;5012772;28;20068;-52
2021/10/18 06:58:09;;;;;;;4.78;2.22;;;;;;;;;;5006031;28;20481;-51
2021/10/18 07:00:35;;;;;;;3.85;2.33;;;;;;;;;;5014096;28;20390;-51
2021/10/18 07:03:01;;;;;;;2.97;1.85;;;;;;;;;;5012229;28;20157;-50
2021/10/18 07:05:27;;;;;;;3.90;1.88;;;;;;;;;;5014162;28;20038;-51
2021/10/18 07:07:53;;;;;;;4.30;1.98;;;;;;;;;;5014144;28;20053;-52
2021/10/18 07:10:19;;;;;;;2.85;1.52;;;;;;;;;;5012603;28;20441;-55
2021/10/18 07:12:45;;;;;;;3.58;2.30;;;;;;;;;;5009500;28;20034;-52
2021/10/18 07:15:11;;;;;;;5.43;2.03;;;;;;;;;;5013517;28;20037;-50
2021/10/18 07:17:38;;;;;;;5.65;2.25;;;;;;;;;;5013847;28;20106;-51
2021/10/18 07:20:05;;;;;;;4.20;2.58;;;;;;;;;;5009750;28;20030;-54
2021/10/18 07:22:36;;;;;;;3.08;1.70;;;;;;;;;;5009620;28;20560;-53
2021/10/18 07:25:02;;;;;;;4.55;1.90;;;;;;;;;;5011327;28;20366;-51
2021/10/18 07:27:28;;;;;;;2.22;1.45;;;;;;;;;;5012288;28;20030;-52
2021/10/18 07:29:56;;;;;;;4.13;1.70;;;;;;;;;;5012983;28;20026;-52
2021/10/18 07:32:22;;;;;;;4.78;2.15;;;;;;;;;;5012401;28;20057;-50
2021/10/18 07:34:48;;;;;;;2.08;1.25;;;;;;;;;;5012150;28;20038;-52
2021/10/18 07:37:14;;;;;;;3.42;2.22;;;;;;;;;;5011653;28;20765;-51
2021/10/18 07:39:41;;;;;;;4.53;1.70;;;;;;;;;;5012679;28;20025;-55
2021/10/18 07:42:10;;;;;;;4.50;2.15;;;;;;;;;;5012400;28;20018;-50
2021/10/18 07:44:36;;;;;;;2.72;1.70;;;;;;;;;;5008025;28;20045;-52
2021/10/18 07:47:02;;;;;;;5.68;1.98;;;;;;;;;;5013001;28;20497;-51
2021/10/18 07:49:29;;;;;;;3.90;1.80;;;;;;;;;;5012934;28;20026;-54
2021/10/18 07:51:55;;;;;;;2.70;1.60;;;;;;;;;;5016584;28;20034;-54
2021/10/18 07:54:24;;;;;;;5.22;1.80;;;;;;;;;;5011898;28;20048;-53
2021/10/18 07:56:50;;;;;;;4.35;2.08;;;;;;;;;;5012158;28;20489;-51
2021/10/18 07:59:16;;;;;;;4.18;1.60;;;;;;;;;;5011482;28;20030;-51
2021/10/18 08:01:41;;;;;;;4.00;1.70;;;;;;;;;;5009545;28;20030;-50
2021/10/18 08:04:07;;;;;;;2.03;1.40;;;;;;;;;;5011123;28;20032;-50
2021/10/18 08:06:34;;;;;;;5.28;1.55;;;;;;;;;;5011058;28;20382;-52
2021/10/18 08:09:01;;;;;;;2.65;1.35;;;;;;;;;;5010045;28;20557;-51
2021/10/18 08:11:27;;;;;;;4.63;1.42;;;;;;;;;;5010494;28;20017;-50
2021/10/18 08:13:53;;;;;;;4.72;1.52;;;;;;;;;;5011795;28;20084;-52
2021/10/18 08:16:19;;;;;;;2.35;1.33;;;;;;;;;;5011196;28;20492;-50
2021/10/18 08:18:45;;;;;;;3.58;1.90;;;;;;;;;;5010876;28;20026;-52
2021/10/18 08:21:12;;;;;;;2.53;1.35;;;;;;;;;;5010992;28;20026;-54
2021/10/18 08:23:38;;;;;;;2.35;1.55;;;;;;;;;;5004722;28;20033;-50
2021/10/18 08:26:05;;;;;;;2.33;1.35;;;;;;;;;;5010796;28;20034;-50
2021/10/18 08:28:31;;;;;;;2.55;1.65;;;;;;;;;;5011112;28;20029;-51
2021/10/18 08:30:58;;;;;;;2.70;1.35;;;;;;;;;;5009949;28;20041;-55
2021/10/18 08:33:24;;;;;;;2.00;1.27;;;;;;;;;;5012341;28;20073;-52
2021/10/18 08:35:50;;;;;;;4.05;1.60;;;;;;;;;;5011736;28;20064;-54
2021/10/18 08:41:06;;;;;;;2.90;1.25;;;;;;;;;;5010515;28;20041;-51
2021/10/18 08:46:04;;;;;;;4.15;1.45;;;;;;;;;;5011687;28;20091;-54
2021/10/18 08:48:30;;;;;;;2.97;1.23;;;;;;;;;;5008291;28;20034;-51
2021/10/18 08:50:57;;;;;;;2.22;1.38;;;;;;;;;;5010150;28;20030;-54
2021/10/18 08:53:23;;;;;;;3.25;1.33;;;;;;;;;;5004270;28;20128;-51
2021/10/18 08:55:49;;;;;;;3.65;1.65;;;;;;;;;;5010312;28;20538;-52
2021/10/18 08:58:16;;;;;;;2.83;1.60;;;;;;;;;;5009115;28;20033;-50
2021/10/18 09:00:46;;;;;;;3.47;1.73;;;;;;;;;;5006606;28;20053;-51
2021/10/18 09:03:23;;;;;;;5.43;1.00;;;;;;;;;;5009673;28;20029;-50
2021/10/18 09:05:50;;;;;;;3.38;1.63;;;;;;;;;;5010985;28;20037;-53
2021/10/18 09:08:35;;;;;;;2.72;1.52;;;;;;;;;;5010578;28;20038;-50
2021/10/18 09:11:11;;;;;;;2.78;1.10;;;;;;;;;;5010431;28;20029;-51
2021/10/18 09:13:40;;;;;;;2.10;1.25;;;;;;;;;;5006610;28;20022;-51
2021/10/18 09:16:06;;;;;;;3.25;1.15;;;;;;;;;;5006955;28;20034;-51
2021/10/18 09:18:32;;;;;;;2.33;1.40;;;;;;;;;;5006732;28;20022;-53
2021/10/18 09:20:58;;;;;;;3.10;1.40;;;;;;;;;;5010884;28;20029;-54
2021/10/18 09:23:36;;;;;;;3.75;1.40;;;;;;;;;;5011341;28;20029;-54
2021/10/18 09:26:06;;;;;;;2.22;1.23;;;;;;;;;;5007992;28;20076;-55
2021/10/18 09:28:33;;;;;;;2.85;1.35;;;;;;;;;;5010662;28;20113;-55
2021/10/18 09:31:00;;;;;;;2.92;1.25;;;;;;;;;;5007350;28;20352;-53
2021/10/18 09:33:39;;;;;;;1.98;1.20;;;;;;;;;;5010995;28;20034;-51
2021/10/18 09:36:09;;;;;;;2.63;1.25;;;;;;;;;;5009053;28;20492;-52
2021/10/18 09:38:35;;;;;;;6.15;1.33;;;;;;;;;;5011735;28;20072;-54
2021/10/18 09:41:01;;;;;;;6.68;1.33;;;;;;;;;;5010161;28;20026;-52
2021/10/18 09:45:59;;;;;;;3.25;1.35;;;;;;;;;;5010828;28;20038;-54
2021/10/18 10:53:22;;;;;;;1.85;0.90;;;;;;;;;;5008434;28;20073;-53
2021/10/18 10:55:49;;;;;;;1.75;1.10;;;;;;;;;;5013526;28;20030;-52
2021/10/18 10:58:33;;;;;;;4.32;0.95;;;;;;;;;;5013678;28;20037;-55
2021/10/18 11:01:00;;;;;;;8.02;1.20;;;;;;;;;;5013767;28;20042;-50
2021/10/18 11:03:47;;;;;;;5.15;1.05;;;;;;;;;;5012269;28;20128;-55
2021/10/18 11:06:13;;;;;;;1.88;0.90;;;;;;;;;;5012058;28;20053;-53
2021/10/18 11:08:41;;;;;;;1.20;0.80;;;;;;;;;;5007844;28;20029;-53
2021/10/18 11:11:23;;;;;;;1.63;1.23;;;;;;;;;;5012717;28;20030;-52
2021/10/18 11:13:54;;;;;;;4.60;1.30;;;;;;;;;;5013537;28;20484;-56
2021/10/18 11:16:22;;;;;;;0.90;0.63;;;;;;;;;;5013449;28;20030;-52
2021/10/18 11:18:49;;;;;;;1.75;0.80;;;;;;;;;;5013166;28;20447;-54
2021/10/18 11:21:20;;;;;;;2.13;0.90;;;;;;;;;;5013602;28;20038;-52
2021/10/18 11:24:13;;;;;;;2.08;0.85;;;;;;;;;;5012622;28;20100;-52
2021/10/18 11:26:40;;;;;;;3.15;0.77;;;;;;;;;;5010717;28;20490;-56
2021/10/18 11:29:10;;;;;;;1.92;0.60;;;;;;;;;;5012373;28;20045;-52
2021/10/18 11:31:37;;;;;;;0.90;0.40;;;;;;;;;;5010765;28;20117;-54
2021/10/18 11:34:07;;;;;;;1.15;0.52;;;;;;;;;;5012033;28;20138;-53
2021/10/18 11:36:34;;;;;;;1.15;0.70;;;;;;;;;;5012491;28;20072;-56
2021/10/18 11:39:10;;;;;;;2.80;0.70;;;;;;;;;;5012831;28;20125;-50
2021/10/18 11:41:54;;;;;;;2.67;0.85;;;;;;;;;;5012592;28;20030;-51
2021/10/18 11:44:37;;;;;;;0.47;0.35;;;;;;;;;;5010050;28;20057;-52
2021/10/18 11:47:03;;;;;;;1.90;0.70;;;;;;;;;;5010901;28;20481;-52
2021/10/18 11:49:29;;;;;;;1.88;0.55;;;;;;;;;;5011775;28;20030;-51
2021/10/18 11:51:55;;;;;;;1.95;1.00;;;;;;;;;;5011233;28;20370;-52
2021/10/18 11:54:21;;;;;;;1.75;0.82;;;;;;;;;;5006923;28;20196;-50
2021/10/18 11:56:47;;;;;;;1.48;0.57;;;;;;;;;;5011606;28;20034;-50
2021/10/18 11:59:15;;;;;;;1.95;0.85;;;;;;;;;;5010813;28;20097;-51
2021/10/18 12:01:41;;;;;;;0.98;0.50;;;;;;;;;;5011576;28;20113;-51
2021/10/18 12:04:07;;;;;;;1.95;0.80;;;;;;;;;;5012263;28;20026;-55
2021/10/18 12:06:46;;;;;;;1.67;0.65;;;;;;;;;;5008575;28;20030;-54
2021/10/18 12:09:12;;;;;;;1.10;0.60;;;;;;;;;;5009139;28;20366;-50
2021/10/18 12:11:38;;;;;;;1.08;0.77;;;;;;;;;;5011954;28;20025;-52
2021/10/18 12:14:04;;;;;;;0.73;0.45;;;;;;;;;;5008795;28;20092;-51
2021/10/18 12:16:30;;;;;;;0.82;0.65;;;;;;;;;;5010594;28;20057;-56
2021/10/18 12:18:58;;;;;;;3.35;1.30;;;;;;;;;;5012283;28;20022;-50
2021/10/18 12:21:26;;;;;;;1.95;0.60;;;;;;;;;;5012462;28;20038;-50
2021/10/18 12:23:59;;;;;;;2.38;0.65;;;;;;;;;;5012232;28;20104;-52
2021/10/18 12:26:25;;;;;;;1.48;0.63;;;;;;;;;;5010549;28;20113;-53
2021/10/18 12:28:55;;;;;;;1.33;0.65;;;;;;;;;;5010959;28;20030;-51
2021/10/18 12:31:24;;;;;;;1.73;0.60;;;;;;;;;;5010932;28;20382;-51
2021/10/18 12:33:59;;;;;;;1.85;0.50;;;;;;;;;;5006609;28;20037;-52
2021/10/18 12:36:25;;;;;;;2.63;1.00;;;;;;;;;;5011835;28;20105;-51
2021/10/18 12:38:50;;;;;;;1.83;1.00;;;;;;;;;;5012125;28;20026;-52
2021/10/18 12:41:18;;;;;;;1.65;0.82;;;;;;;;;;5009935;28;20029;-52
2021/10/18 12:43:45;;;;;;;2.35;0.80;;;;;;;;;;5004738;28;20014;-55
2021/10/18 12:46:15;;;;;;;0.80;0.60;;;;;;;;;;5008662;28;20028;-51
2021/10/18 12:48:41;;;;;;;2.05;0.70;;;;;;;;;;5008956;28;20026;-52
2021/10/18 12:51:07;;;;;;;1.58;0.82;;;;;;;;;;5010222;28;20426;-51
2021/10/18 12:53:35;;;;;;;1.02;0.50;;;;;;;;;;5010724;28;20058;-52
2021/10/18 12:56:01;;;;;;;2.90;0.70;;;;;;;;;;5010319;28;20544;-52
2021/10/18 12:58:32;;;;;;;1.38;0.75;;;;;;;;;;5010047;28;20506;-56
2021/10/18 13:00:58;;;;;;;1.50;0.85;;;;;;;;;;5009326;28;20021;-52
2021/10/18 13:03:24;;;;;;;1.17;0.47;;;;;;;;;;5011571;28;20018;-53
2021/10/18 13:05:50;;;;;;;3.05;0.70;;;;;;;;;;5009987;28;20040;-53
2021/10/18 13:08:20;;;;;;;0.80;0.45;;;;;;;;;;5009239;28;20482;-53
2021/10/18 13:10:50;;;;;;;4.63;0.80;;;;;;;;;;5011468;28;20432;-54
2021/10/18 13:13:17;;;;;;;1.70;0.60;;;;;;;;;;5011164;28;20053;-52
2021/10/18 13:15:45;;;;;;;1.00;0.52;;;;;;;;;;5010829;28;20029;-50
2021/10/18 13:18:12;;;;;;;1.17;0.50;;;;;;;;;;5006222;28;20514;-55
2021/10/18 13:20:38;;;;;;;1.23;0.40;;;;;;;;;;5009647;28;20049;-52
2021/10/18 13:23:05;;;;;;;1.35;0.52;;;;;;;;;;5010012;28;20524;-52
2021/10/18 13:25:33;;;;;;;1.50;0.45;;;;;;;;;;5010876;28;20026;-51
2021/10/18 13:27:59;;;;;;;1.25;0.50;;;;;;;;;;5011089;28;20026;-49
2021/10/18 13:30:25;;;;;;;1.23;0.63;;;;;;;;;;5011420;28;20028;-52
2021/10/18 13:32:52;;;;;;;1.60;0.65;;;;;;;;;;5009067;28;20074;-49
2021/10/18 13:35:18;;;;;;;1.10;0.50;;;;;;;;;;5011928;28;20392;-50
2021/10/18 13:37:45;;;;;;;1.92;0.70;;;;;;;;;;5011696;28;20037;-51
2021/10/18 13:40:11;;;;;;;0.47;0.28;;;;;;;;;;5010449;28;20052;-49
2021/10/18 13:42:41;;;;;;;0.85;0.63;;;;;;;;;;5012310;28;20061;-50
2021/10/18 13:45:08;;;;;;;0.75;0.40;;;;;;;;;;5010831;28;20359;-50
2021/10/18 13:47:34;;;;;;;1.77;0.55;;;;;;;;;;5010329;28;20022;-49
2021/10/18 13:50:00;;;;;;;1.02;0.70;;;;;;;;;;5006466;28;20034;-51
2021/10/18 13:52:26;;;;;;;1.15;0.60;;;;;;;;;;5011197;28;20398;-50
2021/10/18 13:54:53;;;;;;;5.65;0.60;;;;;;;;;;5010803;28;20352;-50
2021/10/18 13:57:21;;;;;;;0.63;0.40;;;;;;;;;;5013544;28;20026;-49
2021/10/18 13:59:47;;;;;;;1.40;0.50;;;;;;;;;;5014800;28;20114;-48
2021/10/18 14:02:16;;;;;;;1.67;0.50;;;;;;;;;;5014614;28;20022;-50
2021/10/18 14:04:43;;;;;;;0.80;0.47;;;;;;;;;;5012725;28;20493;-52
2021/10/18 14:07:09;;;;;;;0.80;0.40;;;;;;;;;;5010867;28;20120;-52
2021/10/18 14:09:35;;;;;;;1.08;0.40;;;;;;;;;;5015339;28;20087;-51
2021/10/18 14:12:04;;;;;;;0.75;0.50;;;;;;;;;;5011398;28;20394;-55
2021/10/18 14:14:30;;;;;;;1.73;0.60;;;;;;;;;;5005818;28;20026;-53
2021/10/18 14:16:56;;;;;;;0.93;0.40;;;;;;;;;;5008197;28;20026;-53
2021/10/18 14:19:22;;;;;;;0.55;0.20;;;;;;;;;;5009764;28;20059;-55
2021/10/18 14:21:48;;;;;;;0.85;0.47;;;;;;;;;;5009778;28;20149;-53
2021/10/18 14:24:14;;;;;;;0.82;0.52;;;;;;;;;;5008104;28;20472;-55
2021/10/18 14:26:40;;;;;;;1.20;0.60;;;;;;;;;;5009063;28;20030;-51
2021/10/18 14:29:07;;;;;;;0.52;0.30;;;;;;;;;;5014985;28;20067;-52
2021/10/18 14:31:33;;;;;;;1.08;0.50;;;;;;;;;;5014212;28;20044;-52
2021/10/18 14:33:59;;;;;;;0.93;0.57;;;;;;;;;;5018445;28;20034;-53
2021/10/18 14:36:25;;;;;;;1.20;0.60;;;;;;;;;;5014046;28;20033;-51
2021/10/18 14:38:56;;;;;;;1.00;0.38;;;;;;;;;;5014134;28;20030;-51
2021/10/18 14:41:23;;;;;;;0.65;0.50;;;;;;;;;;5014138;28;20037;-50
2021/10/18 14:43:51;;;;;;;0.98;0.50;;;;;;;;;;5014801;28;20028;-51
2021/10/18 14:46:17;;;;;;;0.50;0.35;;;;;;;;;;5014166;28;20433;-53
2021/10/18 14:48:43;;;;;;;1.50;0.82;;;;;;;;;;5015991;28;20032;-56
2021/10/18 14:51:09;;;;;;;1.77;0.50;;;;;;;;;;5017679;28;20033;-52
2021/10/18 14:53:35;;;;;;;3.03;0.60;;;;;;;;;;5022183;28;20037;-52
2021/10/18 14:56:01;;;;;;;1.42;0.70;;;;;;;;;;5009437;28;20029;-53
2021/10/18 14:58:27;;;;;;;1.70;0.60;;;;;;;;;;5013469;28;20096;-56
2021/10/18 15:00:54;;;;;;;1.25;0.50;;;;;;;;;;5014321;28;20030;-51
2021/10/18 15:03:20;;;;;;;2.80;0.60;;;;;;;;;;5013787;28;20114;-52
2021/10/18 15:05:46;;;;;;;1.50;0.80;;;;;;;;;;5011033;28;20440;-56
2021/10/18 15:08:12;;;;;;;2.25;0.68;;;;;;;;;;5010117;28;20034;-53
2021/10/18 15:10:40;;;;;;;1.00;0.60;;;;;;;;;;5014267;28;20022;-50
2021/10/18 15:13:06;;;;;;;1.02;0.60;;;;;;;;;;5013347;28;20129;-51
2021/10/18 15:15:32;;;;;;;2.15;0.70;;;;;;;;;;5014018;28;20187;-53
2021/10/18 15:17:58;;;;;;;1.50;0.70;;;;;;;;;;5013710;28;20030;-55
2021/10/18 15:20:24;;;;;;;1.10;0.80;;;;;;;;;;5013433;28;20029;-50
2021/10/18 15:22:50;;;;;;;2.60;1.00;;;;;;;;;;5013323;28;20113;-56
2021/10/18 15:25:16;;;;;;;1.83;1.10;;;;;;;;;;5013548;28;20030;-51
2021/10/18 15:27:42;;;;;;;4.30;1.25;;;;;;;;;;5012795;28;20040;-52
2021/10/18 15:30:10;;;;;;;1.88;1.10;;;;;;;;;;5012048;28;20470;-53
2021/10/18 15:32:36;;;;;;;2.95;1.33;;;;;;;;;;5013018;28;20390;-50
2021/10/18 15:35:06;;;;;;;1.23;0.90;;;;;;;;;;5011711;28;20080;-52
2021/10/18 15:37:33;;;;;;;1.88;1.02;;;;;;;;;;5012382;28;20250;-51
2021/10/18 15:39:59;;;;;;;1.40;0.90;;;;;;;;;;5011056;28;20026;-52
2021/10/18 15:42:25;;;;;;;1.17;0.77;;;;;;;;;;5012689;28;20489;-51
2021/10/18 15:44:51;;;;;;;2.47;1.17;;;;;;;;;;5013329;28;20026;-52
2021/10/18 15:47:18;;;;;;;1.52;0.80;;;;;;;;;;5009904;28;20042;-52
2021/10/18 15:49:44;;;;;;;0.98;0.65;;;;;;;;;;5007664;28;20029;-54
2021/10/18 15:52:10;;;;;;;1.75;0.77;;;;;;;;;;5012108;28;20042;-50
2021/10/18 15:54:36;;;;;;;1.17;0.85;;;;;;;;;;5012949;28;20034;-52